sensor_id;sensor_type;location;lat;lon;timestamp;pressure;altitude;pressure_sealevel;temperature;humidity
78592;BME280;67889;48.352;11.392;2023-02-28T00:00:38;96816.69;;;-2.50;70.65
78592;BME280;67889;48.352;11.392;2023-02-28T00:03:04;96812.69;;;-2.47;71.60
78592;BME280;67889;48.352;11.392;2023-02-28T00:05:30;96810.31;;;-2.49;71.03
78592;BME280;67889;48.352;11.392;2023-02-28T00:07:55;96815.41;;;-2.52;73.01
78592;BME280;67889;48.352;11.392;2023-02-28T00:10:26;96814.41;;;-2.56;71.47
78592;BME280;67889;48.352;11.392;2023-02-28T00:12:52;96798.00;;;-2.64;71.55
78592;BME280;67889;48.352;11.392;2023-02-28T00:15:19;96810.44;;;-2.59;71.66
78592;BME280;67889;48.352;11.392;2023-02-28T00:17:44;96808.66;;;-2.64;72.74
78592;BME280;67889;48.352;11.392;2023-02-28T00:20:10;96808.50;;;-2.72;71.16
78592;BME280;67889;48.352;11.392;2023-02-28T00:22:45;96800.28;;;-2.76;71.59
78592;BME280;67889;48.352;11.392;2023-02-28T00:25:14;96802.72;;;-2.79;72.72
78592;BME280;67889;48.352;11.392;2023-02-28T00:27:40;96795.31;;;-2.82;72.70
78592;BME280;67889;48.352;11.392;2023-02-28T00:30:08;96807.34;;;-2.85;72.18
78592;BME280;67889;48.352;11.392;2023-02-28T00:32:34;96794.09;;;-2.90;72.41
78592;BME280;67889;48.352;11.392;2023-02-28T00:35:00;96807.69;;;-2.92;71.66
78592;BME280;67889;48.352;11.392;2023-02-28T00:37:26;96802.06;;;-2.90;72.25
78592;BME280;67889;48.352;11.392;2023-02-28T00:39:51;96806.88;;;-2.92;72.67
78592;BME280;67889;48.352;11.392;2023-02-28T00:42:16;96806.97;;;-2.97;73.25
78592;BME280;67889;48.352;11.392;2023-02-28T00:44:41;96798.75;;;-3.01;73.91
78592;BME280;67889;48.352;11.392;2023-02-28T00:47:07;96804.72;;;-3.09;72.72
78592;BME280;67889;48.352;11.392;2023-02-28T00:49:32;96804.13;;;-3.06;73.34
78592;BME280;67889;48.352;11.392;2023-02-28T00:51:58;96798.81;;;-3.06;72.53
78592;BME280;67889;48.352;11.392;2023-02-28T00:54:23;96798.59;;;-3.09;73.06
78592;BME280;67889;48.352;11.392;2023-02-28T00:56:49;96799.66;;;-3.10;73.95
78592;BME280;67889;48.352;11.392;2023-02-28T00:59:16;96799.72;;;-3.15;74.38
78592;BME280;67889;48.352;11.392;2023-02-28T01:01:43;96796.56;;;-3.17;73.29
78592;BME280;67889;48.352;11.392;2023-02-28T01:04:09;96800.94;;;-3.27;75.03
78592;BME280;67889;48.352;11.392;2023-02-28T01:06:34;96801.50;;;-3.30;75.67
78592;BME280;67889;48.352;11.392;2023-02-28T01:09:00;96794.59;;;-3.31;74.39
78592;BME280;67889;48.352;11.392;2023-02-28T01:11:26;96793.84;;;-3.36;74.92
78592;BME280;67889;48.352;11.392;2023-02-28T01:13:51;96791.47;;;-3.38;74.51
78592;BME280;67889;48.352;11.392;2023-02-28T01:16:17;96786.41;;;-3.34;74.95
78592;BME280;67889;48.352;11.392;2023-02-28T01:18:43;96786.97;;;-3.37;73.68
78592;BME280;67889;48.352;11.392;2023-02-28T01:21:12;96785.59;;;-3.35;73.76
78592;BME280;67889;48.352;11.392;2023-02-28T01:23:38;96786.44;;;-3.39;74.70
78592;BME280;67889;48.352;11.392;2023-02-28T01:26:10;96783.28;;;-3.41;74.86
78592;BME280;67889;48.352;11.392;2023-02-28T01:28:36;96788.59;;;-3.41;74.87
78592;BME280;67889;48.352;11.392;2023-02-28T01:31:02;96780.97;;;-3.48;75.82
78592;BME280;67889;48.352;11.392;2023-02-28T01:33:28;96784.75;;;-3.54;74.96
78592;BME280;67889;48.352;11.392;2023-02-28T01:36:11;96783.13;;;-3.50;75.35
78592;BME280;67889;48.352;11.392;2023-02-28T01:38:37;96782.31;;;-3.50;75.29
78592;BME280;67889;48.352;11.392;2023-02-28T01:41:03;96783.91;;;-3.49;75.31
78592;BME280;67889;48.352;11.392;2023-02-28T01:43:59;96777.22;;;-3.47;74.38
78592;BME280;67889;48.352;11.392;2023-02-28T01:46:28;96783.34;;;-3.46;75.43
78592;BME280;67889;48.352;11.392;2023-02-28T01:49:07;96780.63;;;-3.41;73.72
78592;BME280;67889;48.352;11.392;2023-02-28T01:54:11;96786.44;;;-3.39;75.55
78592;BME280;67889;48.352;11.392;2023-02-28T01:56:42;96786.69;;;-3.36;74.41
78592;BME280;67889;48.352;11.392;2023-02-28T01:59:09;96776.78;;;-3.30;73.95
78592;BME280;67889;48.352;11.392;2023-02-28T02:01:35;96782.31;;;-3.27;74.17
78592;BME280;67889;48.352;11.392;2023-02-28T02:04:02;96783.63;;;-3.24;74.58
78592;BME280;67889;48.352;11.392;2023-02-28T02:06:31;96773.16;;;-3.15;73.75
78592;BME280;67889;48.352;11.392;2023-02-28T02:08:59;96773.94;;;-3.15;74.32
78592;BME280;67889;48.352;11.392;2023-02-28T02:11:25;96773.03;;;-3.05;74.62
78592;BME280;67889;48.352;11.392;2023-02-28T02:16:41;96775.09;;;-3.02;74.66
78592;BME280;67889;48.352;11.392;2023-02-28T02:22:57;96769.22;;;-2.99;74.64
78592;BME280;67889;48.352;11.392;2023-02-28T02:25:45;96760.50;;;-3.05;75.25
78592;BME280;67889;48.352;11.392;2023-02-28T02:28:20;96758.63;;;-3.04;74.31
78592;BME280;67889;48.352;11.392;2023-02-28T02:31:13;96756.28;;;-3.06;75.08
78592;BME280;67889;48.352;11.392;2023-02-28T02:34:09;96751.16;;;-3.02;74.69
78592;BME280;67889;48.352;11.392;2023-02-28T02:37:36;96754.13;;;-3.04;75.48
78592;BME280;67889;48.352;11.392;2023-02-28T02:42:16;96753.31;;;-3.04;75.75
78592;BME280;67889;48.352;11.392;2023-02-28T02:44:50;96748.28;;;-3.06;74.95
78592;BME280;67889;48.352;11.392;2023-02-28T02:47:30;96757.13;;;-3.10;75.02
78592;BME280;67889;48.352;11.392;2023-02-28T02:49:58;96754.97;;;-3.08;76.12
78592;BME280;67889;48.352;11.392;2023-02-28T02:52:37;96756.56;;;-3.07;75.42
78592;BME280;67889;48.352;11.392;2023-02-28T02:55:05;96751.53;;;-3.09;76.53
78592;BME280;67889;48.352;11.392;2023-02-28T02:57:59;96754.47;;;-3.10;75.49
78592;BME280;67889;48.352;11.392;2023-02-28T03:00:31;96751.81;;;-3.10;76.13
78592;BME280;67889;48.352;11.392;2023-02-28T03:02:57;96747.56;;;-3.11;76.54
78592;BME280;67889;48.352;11.392;2023-02-28T03:05:26;96756.63;;;-3.12;77.33
78592;BME280;67889;48.352;11.392;2023-02-28T03:07:51;96747.00;;;-3.08;76.00
78592;BME280;67889;48.352;11.392;2023-02-28T03:10:55;96756.06;;;-3.09;76.94
78592;BME280;67889;48.352;11.392;2023-02-28T03:21:42;96747.94;;;-2.99;76.31
78592;BME280;67889;48.352;11.392;2023-02-28T03:24:19;96754.34;;;-3.00;76.47
78592;BME280;67889;48.352;11.392;2023-02-28T03:26:58;96756.94;;;-2.95;76.11
78592;BME280;67889;48.352;11.392;2023-02-28T03:32:40;96761.66;;;-2.92;75.57
78592;BME280;67889;48.352;11.392;2023-02-28T03:35:14;96762.47;;;-2.92;76.25
78592;BME280;67889;48.352;11.392;2023-02-28T03:37:48;96761.97;;;-2.94;75.45
78592;BME280;67889;48.352;11.392;2023-02-28T03:40:20;96759.00;;;-2.92;75.48
78592;BME280;67889;48.352;11.392;2023-02-28T03:42:48;96757.66;;;-2.89;76.87
78592;BME280;67889;48.352;11.392;2023-02-28T03:45:27;96757.06;;;-2.86;77.17
78592;BME280;67889;48.352;11.392;2023-02-28T03:47:57;96772.19;;;-2.82;76.16
78592;BME280;67889;48.352;11.392;2023-02-28T03:50:35;96759.66;;;-2.81;75.14
78592;BME280;67889;48.352;11.392;2023-02-28T03:53:11;96771.25;;;-2.72;76.65
78592;BME280;67889;48.352;11.392;2023-02-28T03:55:52;96767.56;;;-2.76;75.66
78592;BME280;67889;48.352;11.392;2023-02-28T04:00:59;96768.44;;;-2.81;76.22
78592;BME280;67889;48.352;11.392;2023-02-28T04:03:37;96767.78;;;-2.73;77.80
78592;BME280;67889;48.352;11.392;2023-02-28T04:06:04;96763.25;;;-2.72;74.92
78592;BME280;67889;48.352;11.392;2023-02-28T04:08:31;96764.41;;;-2.78;75.20
78592;BME280;67889;48.352;11.392;2023-02-28T04:11:01;96770.03;;;-2.80;75.15
78592;BME280;67889;48.352;11.392;2023-02-28T04:13:29;96768.16;;;-2.79;76.57
78592;BME280;67889;48.352;11.392;2023-02-28T04:15:54;96771.09;;;-2.81;76.54
78592;BME280;67889;48.352;11.392;2023-02-28T04:18:20;96774.03;;;-2.82;75.69
78592;BME280;67889;48.352;11.392;2023-02-28T04:20:45;96776.13;;;-2.79;76.60
78592;BME280;67889;48.352;11.392;2023-02-28T04:23:10;96772.97;;;-2.81;75.32
78592;BME280;67889;48.352;11.392;2023-02-28T04:25:35;96786.34;;;-2.86;76.40
78592;BME280;67889;48.352;11.392;2023-02-28T04:28:01;96786.34;;;-2.86;75.72
78592;BME280;67889;48.352;11.392;2023-02-28T04:30:26;96792.66;;;-2.82;75.95
78592;BME280;67889;48.352;11.392;2023-02-28T04:32:51;96799.63;;;-2.86;75.88
78592;BME280;67889;48.352;11.392;2023-02-28T04:35:16;96800.94;;;-2.84;76.37
78592;BME280;67889;48.352;11.392;2023-02-28T04:37:42;96796.91;;;-2.81;76.44
78592;BME280;67889;48.352;11.392;2023-02-28T04:40:08;96794.91;;;-2.71;76.50
78592;BME280;67889;48.352;11.392;2023-02-28T04:42:33;96797.63;;;-2.76;76.44
78592;BME280;67889;48.352;11.392;2023-02-28T04:45:02;96798.44;;;-2.75;76.03
78592;BME280;67889;48.352;11.392;2023-02-28T04:47:27;96797.63;;;-2.76;76.64
78592;BME280;67889;48.352;11.392;2023-02-28T04:49:53;96800.50;;;-2.72;77.86
78592;BME280;67889;48.352;11.392;2023-02-28T04:52:18;96792.81;;;-2.74;76.46
78592;BME280;67889;48.352;11.392;2023-02-28T04:54:43;96797.84;;;-2.72;75.84
78592;BME280;67889;48.352;11.392;2023-02-28T04:57:09;96794.13;;;-2.71;75.51
78592;BME280;67889;48.352;11.392;2023-02-28T04:59:34;96795.19;;;-2.72;74.49
78592;BME280;67889;48.352;11.392;2023-02-28T05:01:59;96802.03;;;-2.66;77.73
78592;BME280;67889;48.352;11.392;2023-02-28T05:04:24;96800.16;;;-2.66;77.92
78592;BME280;67889;48.352;11.392;2023-02-28T05:06:50;96801.66;;;-2.60;76.00
78592;BME280;67889;48.352;11.392;2023-02-28T05:09:15;96801.44;;;-2.63;76.79
78592;BME280;67889;48.352;11.392;2023-02-28T05:11:40;96805.97;;;-2.64;75.11
78592;BME280;67889;48.352;11.392;2023-02-28T05:14:10;96800.94;;;-2.65;75.17
78592;BME280;67889;48.352;11.392;2023-02-28T05:16:36;96807.28;;;-2.61;75.46
78592;BME280;67889;48.352;11.392;2023-02-28T05:19:02;96815.53;;;-2.63;76.14
78592;BME280;67889;48.352;11.392;2023-02-28T05:21:41;96816.06;;;-2.61;75.34
78592;BME280;67889;48.352;11.392;2023-02-28T05:24:13;96822.75;;;-2.63;76.90
78592;BME280;67889;48.352;11.392;2023-02-28T05:26:41;96826.84;;;-2.52;75.69
78592;BME280;67889;48.352;11.392;2023-02-28T05:29:06;96825.25;;;-2.53;74.66
78592;BME280;67889;48.352;11.392;2023-02-28T05:31:32;96822.09;;;-2.55;76.22
78592;BME280;67889;48.352;11.392;2023-02-28T05:33:57;96823.97;;;-2.55;74.68
78592;BME280;67889;48.352;11.392;2023-02-28T05:36:23;96827.41;;;-2.55;75.48
78592;BME280;67889;48.352;11.392;2023-02-28T05:38:50;96825.03;;;-2.56;75.88
78592;BME280;67889;48.352;11.392;2023-02-28T05:41:16;96823.47;;;-2.57;76.25
78592;BME280;67889;48.352;11.392;2023-02-28T05:43:42;96822.38;;;-2.56;76.69
78592;BME280;67889;48.352;11.392;2023-02-28T05:46:09;96821.09;;;-2.59;75.98
78592;BME280;67889;48.352;11.392;2023-02-28T05:48:38;96828.94;;;-2.49;75.70
78592;BME280;67889;48.352;11.392;2023-02-28T05:51:04;96821.44;;;-2.47;74.67
78592;BME280;67889;48.352;11.392;2023-02-28T05:53:33;96821.09;;;-2.59;74.99
78592;BME280;67889;48.352;11.392;2023-02-28T05:55:59;96821.94;;;-2.64;76.76
78592;BME280;67889;48.352;11.392;2023-02-28T05:58:24;96809.72;;;-2.65;76.17
78592;BME280;67889;48.352;11.392;2023-02-28T06:00:54;96817.41;;;-2.63;74.61
78592;BME280;67889;48.352;11.392;2023-02-28T06:03:19;96817.19;;;-2.67;76.48
78592;BME280;67889;48.352;11.392;2023-02-28T06:05:44;96822.03;;;-2.69;75.42
78592;BME280;67889;48.352;11.392;2023-02-28T06:08:10;96820.94;;;-2.68;75.44
78592;BME280;67889;48.352;11.392;2023-02-28T06:10:35;96828.63;;;-2.66;77.77
78592;BME280;67889;48.352;11.392;2023-02-28T06:13:02;96824.53;;;-2.58;75.33
78592;BME280;67889;48.352;11.392;2023-02-28T06:15:28;96824.91;;;-2.65;76.51
78592;BME280;67889;48.352;11.392;2023-02-28T06:17:53;96828.78;;;-2.57;76.14
78592;BME280;67889;48.352;11.392;2023-02-28T06:20:33;96826.84;;;-2.52;76.59
78592;BME280;67889;48.352;11.392;2023-02-28T06:22:59;96831.53;;;-2.63;75.45
78592;BME280;67889;48.352;11.392;2023-02-28T06:25:27;96834.75;;;-2.66;76.15
78592;BME280;67889;48.352;11.392;2023-02-28T06:27:54;96836.56;;;-2.61;76.64
78592;BME280;67889;48.352;11.392;2023-02-28T06:30:20;96844.31;;;-2.65;75.89
78592;BME280;67889;48.352;11.392;2023-02-28T06:32:49;96830.72;;;-2.63;75.14
78592;BME280;67889;48.352;11.392;2023-02-28T06:35:15;96843.03;;;-2.67;74.48
78592;BME280;67889;48.352;11.392;2023-02-28T06:37:40;96847.63;;;-2.73;75.03
78592;BME280;67889;48.352;11.392;2023-02-28T06:40:06;96849.69;;;-2.70;75.98
78592;BME280;67889;48.352;11.392;2023-02-28T06:42:31;96853.38;;;-2.66;74.67
78592;BME280;67889;48.352;11.392;2023-02-28T06:44:57;96834.81;;;-2.71;75.16
78592;BME280;67889;48.352;11.392;2023-02-28T06:47:23;96857.56;;;-2.60;74.57
78592;BME280;67889;48.352;11.392;2023-02-28T06:50:00;96852.38;;;-2.51;75.75
78592;BME280;67889;48.352;11.392;2023-02-28T06:52:26;96850.22;;;-2.49;74.88
78592;BME280;67889;48.352;11.392;2023-02-28T06:54:52;96862.81;;;-2.36;74.60
78592;BME280;67889;48.352;11.392;2023-02-28T06:57:28;96863.41;;;-2.20;75.50
78592;BME280;67889;48.352;11.392;2023-02-28T06:59:56;96873.25;;;-2.02;74.88
78592;BME280;67889;48.352;11.392;2023-02-28T07:02:21;96878.06;;;-2.04;72.45
78592;BME280;67889;48.352;11.392;2023-02-28T07:04:47;96884.69;;;-2.01;72.85
78592;BME280;67889;48.352;11.392;2023-02-28T07:07:12;96874.03;;;-2.01;72.93
78592;BME280;67889;48.352;11.392;2023-02-28T07:09:38;96887.13;;;-1.86;73.24
78592;BME280;67889;48.352;11.392;2023-02-28T07:12:12;96884.88;;;-1.79;72.34
78592;BME280;67889;48.352;11.392;2023-02-28T07:14:37;96884.34;;;-1.62;73.46
78592;BME280;67889;48.352;11.392;2023-02-28T07:17:03;96890.25;;;-1.65;72.43
78592;BME280;67889;48.352;11.392;2023-02-28T07:19:28;96887.03;;;-1.62;71.03
78592;BME280;67889;48.352;11.392;2023-02-28T07:21:54;96878.44;;;-1.59;70.52
78592;BME280;67889;48.352;11.392;2023-02-28T07:24:19;96875.94;;;-1.69;70.70
78592;BME280;67889;48.352;11.392;2023-02-28T07:26:44;96874.78;;;-1.63;71.24
78592;BME280;67889;48.352;11.392;2023-02-28T07:29:10;96877.75;;;-1.51;71.94
78592;BME280;67889;48.352;11.392;2023-02-28T07:31:35;96874.13;;;-1.41;69.92
78592;BME280;67889;48.352;11.392;2023-02-28T07:34:00;96879.19;;;-1.40;69.99
78592;BME280;67889;48.352;11.392;2023-02-28T07:36:26;96885.97;;;-1.47;70.10
78592;BME280;67889;48.352;11.392;2023-02-28T07:38:51;96881.25;;;-1.37;70.60
78592;BME280;67889;48.352;11.392;2023-02-28T07:41:18;96886.84;;;-1.06;69.47
78592;BME280;67889;48.352;11.392;2023-02-28T07:43:44;96891.47;;;-0.98;69.48
78592;BME280;67889;48.352;11.392;2023-02-28T07:46:12;96889.91;;;-0.85;69.13
78592;BME280;67889;48.352;11.392;2023-02-28T07:48:37;96885.75;;;-0.77;68.59
78592;BME280;67889;48.352;11.392;2023-02-28T07:51:03;96889.31;;;-0.82;67.95
78592;BME280;67889;48.352;11.392;2023-02-28T07:53:29;96893.75;;;-0.63;69.17
78592;BME280;67889;48.352;11.392;2023-02-28T07:55:56;96895.84;;;-0.60;66.34
78592;BME280;67889;48.352;11.392;2023-02-28T07:58:21;96889.09;;;-0.58;67.14
78592;BME280;67889;48.352;11.392;2023-02-28T08:00:47;96886.25;;;-0.61;66.81
78592;BME280;67889;48.352;11.392;2023-02-28T08:03:12;96883.53;;;-0.34;67.54
78592;BME280;67889;48.352;11.392;2023-02-28T08:05:41;96896.28;;;-0.31;66.73
78592;BME280;67889;48.352;11.392;2023-02-28T08:08:07;96884.50;;;-0.30;66.76
78592;BME280;67889;48.352;11.392;2023-02-28T08:10:33;96894.22;;;-0.34;65.07
78592;BME280;67889;48.352;11.392;2023-02-28T08:12:58;96888.78;;;-0.43;66.43
78592;BME280;67889;48.352;11.392;2023-02-28T08:15:23;96891.41;;;-0.15;65.78
78592;BME280;67889;48.352;11.392;2023-02-28T08:17:48;96897.28;;;-0.27;64.71
78592;BME280;67889;48.352;11.392;2023-02-28T08:20:14;96899.84;;;-0.36;66.06
78592;BME280;67889;48.352;11.392;2023-02-28T08:22:39;96897.38;;;-0.32;66.39
78592;BME280;67889;48.352;11.392;2023-02-28T08:25:05;96889.06;;;-0.30;64.34
78592;BME280;67889;48.352;11.392;2023-02-28T08:27:32;96899.38;;;-0.38;64.67
78592;BME280;67889;48.352;11.392;2023-02-28T08:29:57;96901.13;;;-0.33;66.95
78592;BME280;67889;48.352;11.392;2023-02-28T08:32:34;96907.63;;;-0.12;65.77
78592;BME280;67889;48.352;11.392;2023-02-28T08:35:00;96898.22;;;0.27;66.45
78592;BME280;67889;48.352;11.392;2023-02-28T08:37:25;96901.75;;;0.58;64.01
78592;BME280;67889;48.352;11.392;2023-02-28T08:39:51;96904.22;;;0.77;61.36
78592;BME280;67889;48.352;11.392;2023-02-28T08:42:16;96911.84;;;0.61;60.91
78592;BME280;67889;48.352;11.392;2023-02-28T08:44:41;96915.50;;;0.66;62.29
78592;BME280;67889;48.352;11.392;2023-02-28T08:47:06;96911.72;;;0.67;63.28
78592;BME280;67889;48.352;11.392;2023-02-28T08:49:32;96907.75;;;0.86;62.01
78592;BME280;67889;48.352;11.392;2023-02-28T08:51:57;96907.25;;;1.15;62.02
78592;BME280;67889;48.352;11.392;2023-02-28T08:54:23;96915.97;;;1.29;60.68
78592;BME280;67889;48.352;11.392;2023-02-28T08:56:48;96910.88;;;1.19;59.54
78592;BME280;67889;48.352;11.392;2023-02-28T08:59:14;96910.97;;;1.06;60.95
78592;BME280;67889;48.352;11.392;2023-02-28T09:01:39;96912.03;;;0.96;61.97
78592;BME280;67889;48.352;11.392;2023-02-28T09:04:06;96922.16;;;0.77;61.95
78592;BME280;67889;48.352;11.392;2023-02-28T09:06:34;96917.25;;;0.70;64.15
78592;BME280;67889;48.352;11.392;2023-02-28T09:08:59;96916.81;;;0.77;62.45
78592;BME280;67889;48.352;11.392;2023-02-28T09:11:26;96912.03;;;0.65;61.62
78592;BME280;67889;48.352;11.392;2023-02-28T09:13:51;96910.50;;;0.73;62.63
78592;BME280;67889;48.352;11.392;2023-02-28T09:16:17;96912.13;;;0.82;61.45
78592;BME280;67889;48.352;11.392;2023-02-28T09:18:43;96912.03;;;0.96;61.73
78592;BME280;67889;48.352;11.392;2023-02-28T09:21:15;96911.59;;;1.03;62.33
78592;BME280;67889;48.352;11.392;2023-02-28T09:23:43;96911.69;;;1.20;61.79
78592;BME280;67889;48.352;11.392;2023-02-28T09:26:23;96916.88;;;1.16;61.25
78592;BME280;67889;48.352;11.392;2023-02-28T09:28:50;96913.34;;;1.07;61.23
78592;BME280;67889;48.352;11.392;2023-02-28T09:31:18;96926.28;;;0.83;62.62
78592;BME280;67889;48.352;11.392;2023-02-28T09:33:48;96927.41;;;0.59;63.38
78592;BME280;67889;48.352;11.392;2023-02-28T09:36:14;96926.69;;;0.45;63.07
78592;BME280;67889;48.352;11.392;2023-02-28T09:38:40;96920.06;;;0.43;65.01
78592;BME280;67889;48.352;11.392;2023-02-28T09:41:15;96927.91;;;0.39;63.74
78592;BME280;67889;48.352;11.392;2023-02-28T09:46:47;96939.75;;;0.47;65.62
78592;BME280;67889;48.352;11.392;2023-02-28T09:49:19;96944.13;;;0.43;65.04
78592;BME280;67889;48.352;11.392;2023-02-28T09:52:00;96943.94;;;0.39;64.32
78592;BME280;67889;48.352;11.392;2023-02-28T09:54:29;96941.38;;;0.34;63.76
78592;BME280;67889;48.352;11.392;2023-02-28T10:05:18;96941.00;;;1.65;60.62
78592;BME280;67889;48.352;11.392;2023-02-28T10:07:57;96940.38;;;3.14;55.14
78592;BME280;67889;48.352;11.392;2023-02-28T10:13:00;96939.34;;;5.11;47.57
78592;BME280;67889;48.352;11.392;2023-02-28T10:15:30;96933.84;;;5.65;47.62
78592;BME280;67889;48.352;11.392;2023-02-28T10:18:00;96939.44;;;5.36;46.44
78592;BME280;67889;48.352;11.392;2023-02-28T10:20:28;96936.78;;;5.15;48.53
78592;BME280;67889;48.352;11.392;2023-02-28T10:22:57;96946.06;;;5.26;48.04
78592;BME280;67889;48.352;11.392;2023-02-28T10:25:27;96932.97;;;6.10;44.99
78592;BME280;67889;48.352;11.392;2023-02-28T10:27:54;96929.41;;;6.34;44.41
78592;BME280;67889;48.352;11.392;2023-02-28T10:30:21;96938.09;;;5.42;47.79
78592;BME280;67889;48.352;11.392;2023-02-28T10:32:51;96948.72;;;4.60;49.18
78592;BME280;67889;48.352;11.392;2023-02-28T10:35:23;96948.53;;;4.24;50.60
78592;BME280;67889;48.352;11.392;2023-02-28T10:37:54;96949.00;;;5.45;48.29
78592;BME280;67889;48.352;11.392;2023-02-28T10:42:57;96940.31;;;7.05;43.46
78592;BME280;67889;48.352;11.392;2023-02-28T10:45:24;96943.59;;;7.74;40.04
78592;BME280;67889;48.352;11.392;2023-02-28T10:47:58;96944.25;;;8.02;41.10
78592;BME280;67889;48.352;11.392;2023-02-28T10:58:30;96945.03;;;8.03;39.12
78592;BME280;67889;48.352;11.392;2023-02-28T11:00:57;96944.31;;;7.11;41.06
78592;BME280;67889;48.352;11.392;2023-02-28T11:03:35;96947.72;;;7.08;42.49
78592;BME280;67889;48.352;11.392;2023-02-28T11:06:16;96951.13;;;6.77;44.91
78592;BME280;67889;48.352;11.392;2023-02-28T11:08:48;96941.22;;;7.72;41.44
78592;BME280;67889;48.352;11.392;2023-02-28T11:11:14;96938.38;;;9.51;37.81
78592;BME280;67889;48.352;11.392;2023-02-28T11:13:42;96931.69;;;10.44;36.26
78592;BME280;67889;48.352;11.392;2023-02-28T11:16:10;96939.88;;;9.26;35.76
78592;BME280;67889;48.352;11.392;2023-02-28T11:18:57;96942.22;;;9.50;36.75
78592;BME280;67889;48.352;11.392;2023-02-28T11:21:53;96939.53;;;10.49;34.68
78592;BME280;67889;48.352;11.392;2023-02-28T11:24:24;96934.00;;;11.42;33.02
78592;BME280;67889;48.352;11.392;2023-02-28T11:26:50;96940.75;;;11.55;33.12
78592;BME280;67889;48.352;11.392;2023-02-28T11:29:25;96931.31;;;11.46;31.87
78592;BME280;67889;48.352;11.392;2023-02-28T11:34:35;96935.81;;;12.85;30.51
78592;BME280;67889;48.352;11.392;2023-02-28T11:37:02;96931.66;;;11.04;32.62
78592;BME280;67889;48.352;11.392;2023-02-28T11:39:32;96927.47;;;13.93;29.68
78592;BME280;67889;48.352;11.392;2023-02-28T11:44:57;96909.47;;;15.33;24.39
78592;BME280;67889;48.352;11.392;2023-02-28T11:50:24;96909.66;;;17.24;22.63
78592;BME280;67889;48.352;11.392;2023-02-28T11:52:56;96908.28;;;17.09;22.25
78592;BME280;67889;48.352;11.392;2023-02-28T11:55:46;96902.19;;;17.52;21.78
78592;BME280;67889;48.352;11.392;2023-02-28T11:58:16;96901.03;;;18.03;22.35
78592;BME280;67889;48.352;11.392;2023-02-28T12:03:33;96892.78;;;16.20;23.22
78592;BME280;67889;48.352;11.392;2023-02-28T12:11:19;96899.53;;;16.50;24.05
78592;BME280;67889;48.352;11.392;2023-02-28T12:17:06;96893.03;;;16.74;23.53
78592;BME280;67889;48.352;11.392;2023-02-28T12:19:51;96893.34;;;16.80;23.54
78592;BME280;67889;48.352;11.392;2023-02-28T12:22:49;96891.19;;;15.78;23.31
78592;BME280;67889;48.352;11.392;2023-02-28T12:28:02;96899.19;;;12.97;27.46
78592;BME280;67889;48.352;11.392;2023-02-28T12:30:35;96893.03;;;13.17;27.93
78592;BME280;67889;48.352;11.392;2023-02-28T12:33:10;96899.53;;;11.57;30.09
78592;BME280;67889;48.352;11.392;2023-02-28T12:38:10;96897.47;;;11.91;31.53
78592;BME280;67889;48.352;11.392;2023-02-28T12:40:44;96891.59;;;10.67;33.34
78592;BME280;67889;48.352;11.392;2023-02-28T12:43:13;96896.50;;;9.29;35.62
78592;BME280;67889;48.352;11.392;2023-02-28T12:45:49;96891.44;;;7.93;39.06
78592;BME280;67889;48.352;11.392;2023-02-28T12:48:23;96888.22;;;6.93;43.19
78592;BME280;67889;48.352;11.392;2023-02-28T12:50:51;96891.09;;;6.16;44.64
78592;BME280;67889;48.352;11.392;2023-02-28T12:56:07;96889.44;;;5.26;46.79
78592;BME280;67889;48.352;11.392;2023-02-28T12:58:42;96888.09;;;4.87;47.90
78592;BME280;67889;48.352;11.392;2023-02-28T13:01:23;96892.44;;;4.46;49.58
78592;BME280;67889;48.352;11.392;2023-02-28T13:09:31;96888.09;;;4.54;51.21
78592;BME280;67889;48.352;11.392;2023-02-28T13:11:57;96880.03;;;4.54;50.22
78592;BME280;67889;48.352;11.392;2023-02-28T13:16:58;96868.59;;;4.03;50.58
78592;BME280;67889;48.352;11.392;2023-02-28T13:19:26;96875.53;;;4.04;52.84
78592;BME280;67889;48.352;11.392;2023-02-28T13:21:52;96863.59;;;4.14;52.25
78592;BME280;67889;48.352;11.392;2023-02-28T13:29:32;96873.56;;;4.13;51.81
78592;BME280;67889;48.352;11.392;2023-02-28T13:34:27;96865.75;;;3.79;52.60
78592;BME280;67889;48.352;11.392;2023-02-28T13:47:30;96877.56;;;4.07;53.99
78592;BME280;67889;48.352;11.392;2023-02-28T13:50:19;96879.66;;;4.02;51.75
78592;BME280;67889;48.352;11.392;2023-02-28T13:58:46;96872.69;;;4.42;49.26
78592;BME280;67889;48.352;11.392;2023-02-28T14:01:16;96886.75;;;4.27;51.07
78592;BME280;67889;48.352;11.392;2023-02-28T14:06:31;96881.69;;;4.05;52.89
78592;BME280;67889;48.352;11.392;2023-02-28T14:11:43;96884.13;;;4.18;54.50
78592;BME280;67889;48.352;11.392;2023-02-28T14:14:09;96879.72;;;3.93;52.50
78592;BME280;67889;48.352;11.392;2023-02-28T14:16:55;96880.03;;;3.71;52.30
78592;BME280;67889;48.352;11.392;2023-02-28T14:19:28;96877.31;;;3.50;51.82
78592;BME280;67889;48.352;11.392;2023-02-28T14:27:49;96879.13;;;3.87;52.18
78592;BME280;67889;48.352;11.392;2023-02-28T14:33:17;96871.50;;;3.69;52.95
78592;BME280;67889;48.352;11.392;2023-02-28T14:36:16;96881.41;;;3.77;53.71
78592;BME280;67889;48.352;11.392;2023-02-28T14:41:19;96886.66;;;3.73;52.48
78592;BME280;67889;48.352;11.392;2023-02-28T14:43:53;96880.03;;;3.71;52.14
78592;BME280;67889;48.352;11.392;2023-02-28T14:46:19;96881.25;;;3.52;52.86
78592;BME280;67889;48.352;11.392;2023-02-28T14:48:46;96872.53;;;3.55;52.46
78592;BME280;67889;48.352;11.392;2023-02-28T14:51:18;96874.84;;;3.66;54.04
78592;BME280;67889;48.352;11.392;2023-02-28T14:53:48;96876.38;;;3.75;56.72
78592;BME280;67889;48.352;11.392;2023-02-28T14:56:26;96872.75;;;3.71;53.30
78592;BME280;67889;48.352;11.392;2023-02-28T14:58:55;96881.94;;;3.70;53.64
78592;BME280;67889;48.352;11.392;2023-02-28T15:01:33;96877.75;;;3.52;55.29
78592;BME280;67889;48.352;11.392;2023-02-28T15:04:06;96876.56;;;3.41;55.23
78592;BME280;67889;48.352;11.392;2023-02-28T15:06:32;96882.13;;;3.36;56.59
78592;BME280;67889;48.352;11.392;2023-02-28T15:09:09;96873.44;;;3.30;57.03
78592;BME280;67889;48.352;11.392;2023-02-28T15:11:36;96882.28;;;3.31;56.82